createdAt,value
2018-10-03T00:00:10.045Z,73.27
2018-10-03T00:02:40.241Z,73.33
2018-10-03T00:05:10.436Z,72.59
2018-10-03T00:07:40.682Z,73.18
2018-10-03T00:10:10.832Z,72.77
2018-10-03T00:12:41.038Z,73.43
2018-10-03T00:15:11.192Z,72.79
2018-10-03T00:17:41.500Z,72.40
2018-10-03T00:20:11.689Z,72.85
2018-10-03T00:22:42.204Z,73.62
2018-10-03T00:25:12.390Z,72.78
2018-10-03T00:27:42.762Z,72.69
2018-10-03T00:30:12.922Z,72.35
2018-10-03T00:32:43.180Z,72.71
2018-10-03T00:35:13.340Z,72.91
2018-10-03T00:37:43.544Z,73.06
2018-10-03T00:40:13.761Z,72.84
2018-10-03T00:42:43.985Z,73.23
2018-10-03T00:45:14.470Z,71.95
2018-10-03T00:47:44.840Z,73.59
2018-10-03T00:50:15.132Z,72.29
2018-10-03T00:52:45.394Z,73.02
2018-10-03T00:55:15.612Z,72.67
2018-10-03T00:57:45.811Z,72.31
2018-10-03T01:00:16.124Z,73.06
2018-10-03T01:02:46.360Z,72.29
2018-10-03T01:05:16.562Z,73.00
2018-10-03T01:07:46.807Z,72.50
2018-10-03T01:10:16.960Z,73.22
2018-10-03T01:12:47.148Z,72.96
2018-10-03T01:15:17.339Z,73.05
2018-10-03T01:17:47.680Z,72.19
2018-10-03T01:20:17.908Z,73.57
2018-10-03T01:22:48.152Z,73.18
2018-10-03T01:25:18.420Z,73.02
2018-10-03T01:27:48.794Z,71.94
2018-10-03T01:30:19.082Z,72.39
2018-10-03T01:32:49.316Z,73.35
2018-10-03T01:35:19.508Z,72.40
2018-10-03T01:37:49.716Z,72.04
2018-10-03T01:40:19.960Z,72.98
2018-10-03T01:42:50.198Z,72.69
2018-10-03T01:45:20.518Z,73.00
2018-10-03T01:47:51.067Z,72.28
2018-10-03T01:50:21.360Z,72.01
2018-10-03T01:52:51.698Z,72.39
2018-10-03T01:55:21.990Z,72.61
2018-10-03T01:57:52.252Z,72.49
2018-10-03T02:00:22.659Z,72.38
2018-10-03T02:02:52.825Z,72.46
2018-10-03T02:05:22.970Z,72.66
2018-10-03T02:07:53.132Z,73.23
2018-10-03T02:10:23.535Z,72.49
2018-10-03T02:12:53.820Z,72.79
2018-10-03T02:15:23.998Z,72.58
2018-10-03T02:17:54.166Z,72.97
2018-10-03T02:20:24.422Z,72.58
2018-10-03T02:22:54.656Z,71.94
2018-10-03T02:25:24.850Z,71.92
2018-10-03T02:27:55.084Z,71.81
2018-10-03T02:30:25.248Z,71.88
2018-10-03T02:32:55.420Z,72.27
2018-10-03T02:35:25.574Z,72.68
2018-10-03T02:37:55.781Z,71.10
2018-10-03T02:40:25.902Z,71.74
2018-10-03T02:42:56.057Z,71.68
2018-10-03T02:45:26.192Z,71.75
2018-10-03T02:47:56.530Z,71.79
2018-10-03T02:50:26.717Z,72.34
2018-10-03T02:52:56.855Z,71.64
2018-10-03T02:55:27.099Z,71.91
2018-10-03T02:57:57.336Z,71.25
2018-10-03T03:00:27.546Z,72.09
2018-10-03T03:02:57.775Z,71.76
2018-10-03T03:05:28.133Z,71.75
2018-10-03T03:07:58.320Z,70.70
2018-10-03T03:10:28.477Z,71.59
2018-10-03T03:12:58.852Z,71.60
2018-10-03T03:15:29.071Z,71.85
2018-10-03T03:17:59.485Z,71.22
2018-10-03T03:20:29.626Z,70.61
2018-10-03T03:23:00.057Z,71.95
2018-10-03T03:25:30.317Z,71.49
2018-10-03T03:28:00.492Z,71.64
2018-10-03T03:30:30.706Z,71.78
2018-10-03T03:33:00.953Z,72.46
2018-10-03T03:35:31.244Z,72.22
2018-10-03T03:38:01.487Z,71.44
2018-10-03T03:40:31.673Z,72.17
2018-10-03T03:43:02.023Z,72.19
2018-10-03T03:45:32.965Z,72.07
2018-10-03T03:48:03.287Z,72.96
2018-10-03T03:50:33.502Z,71.61
2018-10-03T03:53:03.737Z,71.92
2018-10-03T03:55:33.867Z,72.43
2018-10-03T03:58:04.159Z,72.22
2018-10-03T04:00:34.312Z,72.25
2018-10-03T04:03:04.513Z,72.30
2018-10-03T04:05:34.813Z,71.29
2018-10-03T04:08:05.269Z,70.97
2018-10-03T04:10:35.404Z,71.20
2018-10-03T04:13:05.607Z,71.42
2018-10-03T04:15:35.817Z,70.63
2018-10-03T04:18:05.993Z,71.04
2018-10-03T04:20:36.331Z,71.32
2018-10-03T04:23:06.583Z,70.77
2018-10-03T04:25:36.792Z,71.55
2018-10-03T04:28:07.259Z,71.10
2018-10-03T04:30:37.551Z,72.52
2018-10-03T04:33:07.848Z,71.87
2018-10-03T04:35:38.030Z,71.72
2018-10-03T04:38:08.320Z,72.54
2018-10-03T04:40:38.523Z,72.44
2018-10-03T04:43:08.791Z,72.46
2018-10-03T04:45:38.941Z,72.21
2018-10-03T04:48:09.220Z,72.43
2018-10-03T04:50:39.416Z,72.66
2018-10-03T04:53:09.759Z,72.57
2018-10-03T04:55:39.936Z,72.65
2018-10-03T04:58:10.105Z,72.28
2018-10-03T05:00:41.217Z,71.87
2018-10-03T05:03:11.679Z,73.46
2018-10-03T05:05:41.816Z,73.76
2018-10-03T05:08:12.167Z,73.86
2018-10-03T05:10:42.337Z,73.49
2018-10-03T05:13:12.670Z,73.73
2018-10-03T05:15:42.839Z,73.28
2018-10-03T05:18:13.078Z,73.28
2018-10-03T05:20:43.280Z,73.35
2018-10-03T05:23:13.522Z,74.11
2018-10-03T05:25:43.839Z,73.79
2018-10-03T05:28:14.025Z,74.21
2018-10-03T05:30:44.287Z,74.64
2018-10-03T05:33:14.572Z,73.17
2018-10-03T05:35:44.746Z,73.67
2018-10-03T05:38:15.083Z,74.00
2018-10-03T05:40:45.275Z,73.74
2018-10-03T05:43:15.475Z,73.23
2018-10-03T05:45:45.660Z,73.03
2018-10-03T05:48:15.901Z,74.39
2018-10-03T05:50:46.044Z,74.44
2018-10-03T05:53:16.400Z,73.85
2018-10-03T05:55:46.591Z,73.06
2018-10-03T05:58:16.833Z,73.11
2018-10-03T06:00:46.978Z,73.89
2018-10-03T06:03:17.236Z,73.50
2018-10-03T06:05:47.470Z,72.82
2018-10-03T06:08:17.672Z,72.54
2018-10-03T06:10:47.849Z,73.94
2018-10-03T06:13:18.156Z,74.19
2018-10-03T06:15:48.541Z,73.23
2018-10-03T06:18:18.751Z,73.79
2018-10-03T06:20:49.037Z,74.38
2018-10-03T06:23:19.364Z,73.97
2018-10-03T06:25:49.655Z,73.72
2018-10-03T06:28:19.895Z,72.57
2018-10-03T06:30:50.033Z,73.23
2018-10-03T06:33:20.309Z,73.12
2018-10-03T06:35:50.525Z,72.41
2018-10-03T06:38:20.722Z,72.90
2018-10-03T06:40:50.892Z,72.77
2018-10-03T06:43:21.260Z,73.23
2018-10-03T06:45:51.481Z,74.35
2018-10-03T06:48:21.816Z,73.45
2018-10-03T06:50:52.053Z,73.67
2018-10-03T06:53:22.304Z,71.79
2018-10-03T06:55:52.604Z,72.94
2018-10-03T06:58:22.798Z,72.92
2018-10-03T07:00:59.266Z,72.93
2018-10-03T07:03:29.523Z,73.27
2018-10-03T07:05:59.732Z,74.08
2018-10-03T07:08:29.992Z,74.04
2018-10-03T07:11:00.158Z,74.08
2018-10-03T07:13:31.960Z,72.56
2018-10-03T07:16:02.268Z,72.30
2018-10-03T07:18:32.724Z,72.80
2018-10-03T07:21:03.145Z,72.46
2018-10-03T07:23:33.634Z,72.47
2018-10-03T07:26:03.996Z,72.03
2018-10-03T07:28:34.191Z,72.17
2018-10-03T07:31:04.350Z,71.98
2018-10-03T07:33:34.737Z,71.15
2018-10-03T07:36:05.286Z,71.68
2018-10-03T07:38:35.454Z,71.39
2018-10-03T07:41:06.024Z,71.76
2018-10-03T07:43:36.225Z,72.32
2018-10-03T07:46:06.450Z,71.45
2018-10-03T07:48:36.911Z,71.17
2018-10-03T07:51:07.466Z,70.90
2018-10-03T07:53:38.060Z,70.35
2018-10-03T07:56:08.503Z,71.53
2018-10-03T07:58:38.674Z,71.74
2018-10-03T08:01:09.117Z,71.27
2018-10-03T08:03:39.275Z,71.89
2018-10-03T08:06:09.570Z,71.27
2018-10-03T08:08:40.202Z,71.72
2018-10-03T08:11:10.521Z,70.97
2018-10-03T08:13:40.705Z,70.56
2018-10-03T08:16:10.970Z,70.38
2018-10-03T08:18:41.167Z,70.25
2018-10-03T08:21:11.401Z,70.50
2018-10-03T08:23:41.733Z,69.61
2018-10-03T08:26:11.915Z,69.90
2018-10-03T08:28:42.243Z,68.72
2018-10-03T08:31:12.593Z,69.83
2018-10-03T08:33:43.333Z,69.36
2018-10-03T08:36:14.138Z,68.87
2018-10-03T08:38:44.342Z,69.38
2018-10-03T08:41:14.682Z,68.21
2018-10-03T08:43:44.914Z,68.68
2018-10-03T08:46:15.329Z,68.49
2018-10-03T08:48:45.573Z,68.73
2018-10-03T08:51:15.799Z,68.82
2018-10-03T08:53:46.110Z,68.63
2018-10-03T08:56:16.448Z,70.14
2018-10-03T08:58:46.771Z,69.80
2018-10-03T09:01:17.107Z,70.83
2018-10-03T09:03:47.398Z,71.06
2018-10-03T09:06:17.623Z,72.10
2018-10-03T09:08:48.015Z,72.85
2018-10-03T09:11:18.267Z,73.51
2018-10-03T09:13:48.481Z,73.63
2018-10-03T09:16:18.819Z,73.56
2018-10-03T09:18:49.033Z,73.66
2018-10-03T09:21:19.378Z,74.05
2018-10-03T09:23:49.653Z,73.07
2018-10-03T09:26:20.036Z,73.53
2018-10-03T09:28:50.512Z,72.34
2018-10-03T09:31:20.725Z,73.16
2018-10-03T09:33:50.882Z,73.94
2018-10-03T09:36:21.091Z,73.89
2018-10-03T09:38:51.388Z,73.77
2018-10-03T09:41:21.667Z,73.87
2018-10-03T09:43:51.874Z,74.29
2018-10-03T09:46:22.204Z,74.29
2018-10-03T09:48:52.383Z,74.35
2018-10-03T09:51:22.639Z,73.81
2018-10-03T09:53:52.904Z,73.96
2018-10-03T09:56:23.173Z,73.50
2018-10-03T09:58:53.375Z,74.15
2018-10-03T10:01:30.906Z,74.10
2018-10-03T10:04:03.379Z,73.84
2018-10-03T10:06:34.765Z,74.08
2018-10-03T10:09:06.753Z,75.29
2018-10-03T10:11:37.152Z,73.95
2018-10-03T10:14:07.305Z,74.15
2018-10-03T10:16:37.657Z,74.86
2018-10-03T10:19:07.964Z,73.87
2018-10-03T10:21:38.285Z,73.02
2018-10-03T10:24:08.480Z,73.85
2018-10-03T10:26:38.808Z,73.86
2018-10-03T10:29:08.999Z,74.12
2018-10-03T10:31:39.506Z,73.39
2018-10-03T10:34:09.729Z,73.01
2018-10-03T10:36:40.048Z,73.17
2018-10-03T10:39:11.600Z,73.63
2018-10-03T10:41:42.003Z,73.08
2018-10-03T10:44:12.174Z,73.00
2018-10-03T10:46:42.576Z,73.48
2018-10-03T10:49:13.051Z,73.10
2018-10-03T10:51:43.392Z,71.77
2018-10-03T10:54:13.626Z,72.81
2018-10-03T10:56:43.963Z,72.88
2018-10-03T10:59:14.371Z,73.20
2018-10-03T11:01:44.648Z,73.19
2018-10-03T11:04:14.830Z,73.23
2018-10-03T11:06:45.226Z,74.35
2018-10-03T11:09:15.366Z,74.24
2018-10-03T11:11:45.724Z,74.27
2018-10-03T11:14:15.961Z,74.11
2018-10-03T11:16:46.230Z,74.08
2018-10-03T11:19:16.408Z,74.71
2018-10-03T11:21:46.665Z,75.44
2018-10-03T11:24:17.046Z,75.34
2018-10-03T11:26:47.214Z,75.51
2018-10-03T11:29:17.418Z,75.39
2018-10-03T11:31:47.642Z,75.34
2018-10-03T11:34:17.952Z,74.57
2018-10-03T11:36:48.201Z,75.79
2018-10-03T11:39:18.408Z,76.40
2018-10-03T11:41:48.737Z,75.42
2018-10-03T11:44:19.055Z,75.83
2018-10-03T11:46:49.873Z,75.34
2018-10-03T11:49:20.220Z,75.83
2018-10-03T11:51:50.537Z,75.47
2018-10-03T11:54:20.852Z,75.95
2018-10-03T11:56:51.038Z,75.48
2018-10-03T11:59:21.383Z,74.60
2018-10-03T12:01:51.670Z,74.39
2018-10-03T12:04:21.953Z,74.24
2018-10-03T12:06:52.434Z,74.46
2018-10-03T12:09:22.894Z,74.41
2018-10-03T12:11:53.294Z,74.00
2018-10-03T12:14:23.456Z,73.49
2018-10-03T12:16:53.894Z,74.14
2018-10-03T12:19:24.085Z,73.57
2018-10-03T12:21:54.314Z,72.99
2018-10-03T12:24:24.508Z,73.78
2018-10-03T12:26:54.760Z,72.39
2018-10-03T12:29:24.930Z,73.23
2018-10-03T12:31:55.212Z,72.96
2018-10-03T12:34:25.530Z,73.65
2018-10-03T12:36:55.742Z,73.73
2018-10-03T12:39:25.897Z,72.55
2018-10-03T12:41:56.204Z,72.94
2018-10-03T12:44:26.397Z,72.09
2018-10-03T12:46:56.741Z,72.35
2018-10-03T12:49:27.141Z,72.91
2018-10-03T12:51:57.398Z,72.30
2018-10-03T12:54:27.695Z,71.67
2018-10-03T12:56:57.913Z,71.56
2018-10-03T12:59:28.089Z,70.75
2018-10-03T13:01:58.367Z,71.16
2018-10-03T13:04:28.534Z,70.41
2018-10-03T13:06:58.809Z,70.78
2018-10-03T13:09:29.009Z,70.42
2018-10-03T13:11:59.238Z,71.13
2018-10-03T13:14:29.459Z,69.48
2018-10-03T13:16:59.689Z,69.37
2018-10-03T13:19:29.878Z,66.61
2018-10-03T13:22:00.094Z,65.95
2018-10-03T13:24:30.664Z,64.99
2018-10-03T13:27:00.781Z,65.15
2018-10-03T13:29:31.109Z,64.77
2018-10-03T13:32:01.641Z,65.14
2018-10-03T13:34:32.035Z,64.68
2018-10-03T13:37:02.389Z,64.50
2018-10-03T13:39:32.680Z,63.02
2018-10-03T13:42:03.029Z,63.17
2018-10-03T13:44:33.320Z,62.46
2018-10-03T13:47:03.581Z,62.48
2018-10-03T13:49:33.978Z,62.31
2018-10-03T13:52:04.315Z,62.82
2018-10-03T13:54:34.516Z,62.92
2018-10-03T13:57:04.872Z,63.09
2018-10-03T13:59:35.175Z,63.86
2018-10-03T14:02:05.657Z,64.29
2018-10-03T14:04:36.035Z,63.71
2018-10-03T14:07:06.526Z,64.50
2018-10-03T14:09:36.683Z,63.82
2018-10-03T14:12:07.033Z,64.39
2018-10-03T14:14:37.629Z,64.43
2018-10-03T14:17:07.912Z,63.92
2018-10-03T14:19:38.161Z,64.83
2018-10-03T14:22:08.662Z,65.74
2018-10-03T14:24:38.901Z,65.94
2018-10-03T14:27:09.375Z,65.24
2018-10-03T14:29:39.612Z,66.78
2018-10-03T14:32:10.133Z,66.83
2018-10-03T14:34:40.408Z,67.46
2018-10-03T14:37:10.600Z,66.57
2018-10-03T14:39:40.816Z,67.41
2018-10-03T14:42:11.116Z,67.35
2018-10-03T14:44:41.333Z,68.16
2018-10-03T14:47:12.247Z,68.39
2018-10-03T14:49:42.460Z,69.41
2018-10-03T14:52:12.703Z,69.47
2018-10-03T14:54:42.812Z,68.25
2018-10-03T14:57:13.041Z,67.63
2018-10-03T14:59:43.306Z,67.75
2018-10-03T15:02:13.495Z,69.04
2018-10-03T15:04:43.649Z,68.86
2018-10-03T15:07:13.800Z,69.39
2018-10-03T15:09:44.004Z,68.26
2018-10-03T15:12:14.226Z,68.39
2018-10-03T15:14:44.435Z,68.57
2018-10-03T15:17:14.652Z,69.02
2018-10-03T15:19:44.907Z,68.69
2018-10-03T15:22:16.048Z,68.23
2018-10-03T15:24:46.233Z,67.65
2018-10-03T15:27:16.496Z,68.36
2018-10-03T15:29:46.789Z,69.13
2018-10-03T15:32:17.065Z,69.16
2018-10-03T15:34:47.252Z,67.66
2018-10-03T15:37:17.481Z,68.09
2018-10-03T15:39:47.704Z,68.61
2018-10-03T15:42:18.008Z,68.71
2018-10-03T15:44:48.359Z,68.35
2018-10-03T15:47:18.676Z,68.70
2018-10-03T15:49:48.894Z,68.38
2018-10-03T15:52:19.120Z,69.16
2018-10-03T15:54:49.356Z,69.73
2018-10-03T15:57:19.527Z,68.99
2018-10-03T15:59:49.777Z,69.23
2018-10-03T16:02:20.017Z,68.60
2018-10-03T16:04:50.327Z,68.48
2018-10-03T16:07:20.743Z,68.16
2018-10-03T16:09:51.021Z,68.94
2018-10-03T16:12:21.215Z,69.24
2018-10-03T16:14:51.443Z,69.29
2018-10-03T16:17:21.793Z,69.50
2018-10-03T16:19:52.242Z,68.76
2018-10-03T16:22:22.465Z,69.74
2018-10-03T16:24:53.099Z,69.48
2018-10-03T16:27:23.358Z,70.11
2018-10-03T16:29:53.758Z,69.10
2018-10-03T16:32:24.055Z,69.54
2018-10-03T16:34:54.225Z,70.09
2018-10-03T16:37:24.434Z,70.16
2018-10-03T16:39:54.619Z,69.92
2018-10-03T16:42:24.857Z,70.97
2018-10-03T16:44:55.061Z,71.05
2018-10-03T16:47:25.424Z,71.67
2018-10-03T16:49:55.734Z,72.06
2018-10-03T16:52:26.777Z,71.35
2018-10-03T16:54:56.930Z,69.37
2018-10-03T16:57:27.155Z,70.03
2018-10-03T16:59:57.486Z,70.62
2018-10-03T17:02:27.674Z,69.91
2018-10-03T17:04:58.266Z,70.77
2018-10-03T17:07:28.461Z,70.76
2018-10-03T17:09:58.698Z,72.26
2018-10-03T17:12:28.934Z,72.70
2018-10-03T17:14:59.169Z,72.31
2018-10-03T17:17:29.420Z,73.09
2018-10-03T17:19:59.713Z,73.36
2018-10-03T17:22:30.090Z,73.72
2018-10-03T17:25:00.323Z,73.09
2018-10-03T17:27:30.608Z,74.47
2018-10-03T17:30:00.757Z,74.79
2018-10-03T17:32:30.963Z,74.53
2018-10-03T17:35:01.230Z,74.21
2018-10-03T17:37:31.815Z,74.43
2018-10-03T17:40:02.114Z,75.57
2018-10-03T17:42:32.342Z,75.46
2018-10-03T17:45:02.543Z,76.26
2018-10-03T17:47:32.747Z,76.61
2018-10-03T17:50:02.962Z,76.65
2018-10-03T17:52:33.189Z,77.07
2018-10-03T17:55:03.373Z,76.77
2018-10-03T17:57:33.685Z,77.60
2018-10-03T18:00:03.893Z,77.53
2018-10-03T18:02:34.851Z,78.71
2018-10-03T18:05:05.227Z,77.56
2018-10-03T18:07:35.461Z,78.26
2018-10-03T18:10:05.679Z,78.28
2018-10-03T18:12:35.919Z,78.40
2018-10-03T18:15:06.231Z,78.30
2018-10-03T18:17:36.558Z,78.77
2018-10-03T18:20:06.964Z,78.19
2018-10-03T18:22:37.221Z,79.02
2018-10-03T18:25:08.032Z,79.25
2018-10-03T18:27:39.006Z,80.46
2018-10-03T18:30:09.515Z,79.23
2018-10-03T18:32:39.732Z,79.06
2018-10-03T18:35:09.946Z,79.65
2018-10-03T18:37:40.135Z,79.74
2018-10-03T18:40:10.681Z,79.93
2018-10-03T18:42:40.907Z,80.16
2018-10-03T18:45:11.119Z,79.48
2018-10-03T18:47:41.301Z,80.33
2018-10-03T18:50:11.562Z,79.93
2018-10-03T18:52:41.742Z,80.21
2018-10-03T18:55:11.903Z,80.47
2018-10-03T18:57:42.133Z,80.39
2018-10-03T19:00:12.348Z,80.24
2018-10-03T19:02:42.567Z,81.26
2018-10-03T19:05:12.873Z,81.57
2018-10-03T19:07:43.113Z,81.01
2018-10-03T19:10:13.386Z,81.21
2018-10-03T19:12:43.642Z,81.10
2018-10-03T19:15:13.877Z,81.22
2018-10-03T19:17:44.060Z,80.98
2018-10-03T19:20:14.304Z,80.34
2018-10-03T19:22:44.467Z,80.77
2018-10-03T19:25:14.746Z,81.05
2018-10-03T19:27:45.154Z,80.66
2018-10-03T19:30:15.410Z,80.20
2018-10-03T19:32:45.742Z,81.02
2018-10-03T19:35:16.087Z,81.61
2018-10-03T19:37:46.281Z,80.93
2018-10-03T19:40:16.515Z,81.75
2018-10-03T19:42:46.768Z,81.64
2018-10-03T19:45:17.115Z,80.84
2018-10-03T19:47:47.404Z,81.59
2018-10-03T19:50:17.524Z,81.43
2018-10-03T19:52:47.787Z,81.36
2018-10-03T19:55:18.048Z,81.82
2018-10-03T19:57:48.362Z,81.54
2018-10-03T20:00:18.532Z,80.64
2018-10-03T20:02:48.936Z,81.46
2018-10-03T20:05:19.139Z,82.12
2018-10-03T20:07:49.855Z,81.95
2018-10-03T20:10:20.041Z,82.29
2018-10-03T20:12:51.115Z,81.58
2018-10-03T20:15:21.321Z,82.00
2018-10-03T20:17:51.566Z,82.30
2018-10-03T20:20:21.768Z,82.37
2018-10-03T20:22:52.227Z,82.48
2018-10-03T20:25:22.480Z,82.66
2018-10-03T20:27:52.682Z,82.52
2018-10-03T20:30:22.968Z,82.80
2018-10-03T20:32:53.235Z,82.18
2018-10-03T20:35:23.505Z,82.48
2018-10-03T20:37:53.836Z,82.40
2018-10-03T20:40:24.024Z,82.75
2018-10-03T20:42:54.277Z,82.21
2018-10-03T20:45:24.483Z,81.93
2018-10-03T20:47:54.717Z,83.00
2018-10-03T20:50:24.899Z,81.89
2018-10-03T20:52:55.130Z,82.12
2018-10-03T20:55:25.307Z,83.44
2018-10-03T20:57:55.495Z,83.29
2018-10-03T21:00:25.816Z,83.17
2018-10-03T21:02:55.943Z,82.19
2018-10-03T21:05:26.255Z,83.33
2018-10-03T21:10:25.777Z,83.14
2018-10-03T21:12:56.017Z,83.30
2018-10-03T21:15:26.439Z,83.64
2018-10-03T21:17:56.639Z,84.35
2018-10-03T21:20:26.957Z,83.24
2018-10-03T21:22:57.180Z,82.40
2018-10-03T21:25:27.444Z,83.00
2018-10-03T21:27:57.724Z,83.21
2018-10-03T21:30:28.045Z,83.08
2018-10-03T21:32:58.291Z,83.06
2018-10-03T21:35:28.724Z,83.20
2018-10-03T21:37:58.974Z,83.07
2018-10-03T21:40:29.271Z,83.41
2018-10-03T21:42:59.555Z,83.37
2018-10-03T21:45:29.789Z,83.05
2018-10-03T21:48:00.078Z,83.38
2018-10-03T21:50:30.636Z,83.19
2018-10-03T21:53:00.946Z,82.84
2018-10-03T21:55:31.174Z,83.10
2018-10-03T21:58:01.395Z,83.27
2018-10-03T22:00:36.868Z,82.89
2018-10-03T22:03:07.005Z,83.82
2018-10-03T22:05:37.283Z,83.09
2018-10-03T22:08:07.591Z,83.54
2018-10-03T22:10:37.952Z,84.10
2018-10-03T22:13:08.129Z,83.69
2018-10-03T22:15:38.377Z,83.95
2018-10-03T22:18:08.540Z,84.15
2018-10-03T22:20:38.713Z,83.44
2018-10-03T22:23:08.983Z,83.28
2018-10-03T22:25:39.105Z,82.65
2018-10-03T22:28:09.371Z,83.67
2018-10-03T22:30:39.636Z,83.16
2018-10-03T22:33:09.809Z,83.58
2018-10-03T22:35:40.224Z,83.77
2018-10-03T22:38:10.439Z,83.89
2018-10-03T22:40:40.612Z,84.52
2018-10-03T22:43:11.004Z,83.75
2018-10-03T22:45:41.191Z,84.05
2018-10-03T22:48:11.540Z,84.97
2018-10-03T22:50:41.905Z,83.61
2018-10-03T22:53:12.093Z,83.32
2018-10-03T22:55:42.262Z,83.98
2018-10-03T22:58:12.614Z,84.23
2018-10-03T23:00:43.098Z,84.15
2018-10-03T23:03:13.404Z,83.47
2018-10-03T23:05:43.880Z,83.39
2018-10-03T23:08:14.240Z,83.45
2018-10-03T23:10:44.396Z,83.69
2018-10-03T23:13:14.573Z,84.23
2018-10-03T23:15:45.024Z,84.21
2018-10-03T23:18:15.324Z,84.19
2018-10-03T23:20:45.551Z,83.72
2018-10-03T23:23:15.706Z,84.45
2018-10-03T23:25:45.914Z,82.99
2018-10-03T23:28:16.124Z,83.20
2018-10-03T23:30:46.305Z,83.19
2018-10-03T23:33:16.549Z,83.68
2018-10-03T23:35:46.791Z,83.83
2018-10-03T23:38:16.994Z,83.67
2018-10-03T23:40:47.221Z,84.10
2018-10-03T23:43:17.372Z,82.98
2018-10-03T23:45:47.918Z,83.43
2018-10-03T23:48:18.056Z,83.31
2018-10-03T23:50:48.409Z,83.92
2018-10-03T23:53:18.718Z,84.79
2018-10-03T23:55:48.964Z,83.46
2018-10-03T23:58:19.177Z,83.41
